Time;durP1;ratioP1;P1;durP2;ratioP2;P2;SDS_P1;SDS_P2;PMS_P1;PMS_P2;Temp;Humidity;BMP_temperature;BMP_pressure;BME280_temperature;BME280_humidity;BME280_pressure;Samples;Min_cycle;Max_cycle;Signal;HPM_P1;HPM_P2
2022/10/09 00:01:10;;;;;;;0.30;0.30;;;;;;;;;;7382932;19;20109;-71
2022/10/09 00:03:37;;;;;;;0.30;0.30;;;;;;;;;;7384897;19;20139;-72
2022/10/09 00:06:03;;;;;;;0.30;0.30;;;;;;;;;;7385256;19;20612;-72
2022/10/09 00:08:29;;;;;;;0.30;0.30;;;;;;;;;;7385243;19;20105;-72
2022/10/09 00:10:54;;;;;;;0.30;0.30;;;;;;;;;;7382354;19;20137;-71
2022/10/09 00:13:19;;;;;;;0.30;0.30;;;;;;;;;;7383982;19;20544;-72
2022/10/09 00:15:46;;;;;;;0.30;0.30;;;;;;;;;;7382851;19;20125;-71
2022/10/09 00:18:15;;;;;;;0.30;0.30;;;;;;;;;;7385149;19;20120;-71
2022/10/09 00:20:43;;;;;;;0.30;0.30;;;;;;;;;;7383251;19;20144;-72
2022/10/09 00:23:09;;;;;;;0.20;0.20;;;;;;;;;;7383103;19;20118;-72
2022/10/09 00:25:35;;;;;;;0.30;0.30;;;;;;;;;;7385538;19;20447;-72
2022/10/09 00:28:01;;;;;;;0.30;0.30;;;;;;;;;;7386640;19;20136;-72
2022/10/09 00:30:26;;;;;;;0.30;0.30;;;;;;;;;;7384922;19;20116;-72
2022/10/09 00:32:52;;;;;;;0.30;0.30;;;;;;;;;;7386535;19;20105;-71
2022/10/09 00:35:18;;;;;;;0.30;0.30;;;;;;;;;;7385685;19;20136;-72
2022/10/09 00:37:43;;;;;;;0.30;0.30;;;;;;;;;;7385650;19;20132;-72
2022/10/09 00:40:08;;;;;;;0.20;0.20;;;;;;;;;;7384265;19;20133;-72
2022/10/09 00:42:34;;;;;;;0.30;0.30;;;;;;;;;;7385631;19;20125;-71
2022/10/09 00:45:00;;;;;;;0.30;0.30;;;;;;;;;;7385201;19;20159;-72
2022/10/09 00:47:29;;;;;;;0.20;0.20;;;;;;;;;;7385613;19;20548;-72
2022/10/09 00:49:59;;;;;;;0.30;0.30;;;;;;;;;;7386641;19;20121;-70
2022/10/09 00:52:25;;;;;;;0.30;0.30;;;;;;;;;;7386485;19;20571;-71
2022/10/09 00:54:50;;;;;;;0.20;0.20;;;;;;;;;;7384970;19;20125;-72
2022/10/09 00:57:16;;;;;;;0.30;0.30;;;;;;;;;;7385768;19;20116;-72
2022/10/09 00:59:41;;;;;;;0.30;0.30;;;;;;;;;;7385785;19;20457;-72
2022/10/09 01:02:06;;;;;;;0.30;0.30;;;;;;;;;;7387778;19;20185;-72
2022/10/09 01:04:32;;;;;;;0.30;0.30;;;;;;;;;;7392492;19;20211;-72
2022/10/09 01:07:14;;;;;;;0.20;0.20;;;;;;;;;;7393389;19;20147;-72
2022/10/09 01:10:04;;;;;;;0.30;0.30;;;;;;;;;;7393133;19;20121;-72
2022/10/09 01:12:38;;;;;;;0.30;0.30;;;;;;;;;;7395091;19;20122;-72
2022/10/09 01:15:15;;;;;;;0.30;0.30;;;;;;;;;;7392378;19;20192;-71
2022/10/09 01:17:40;;;;;;;0.30;0.30;;;;;;;;;;7393260;19;20113;-72
2022/10/09 01:20:27;;;;;;;0.30;0.30;;;;;;;;;;7393163;19;20124;-71
2022/10/09 01:23:06;;;;;;;0.30;0.30;;;;;;;;;;7390182;19;20117;-71
2022/10/09 01:25:42;;;;;;;0.20;0.20;;;;;;;;;;7390357;19;20160;-72
2022/10/09 01:28:08;;;;;;;0.30;0.30;;;;;;;;;;7392048;19;20196;-72
2022/10/09 01:30:34;;;;;;;0.30;0.30;;;;;;;;;;7392204;19;20693;-72
2022/10/09 01:32:59;;;;;;;0.30;0.30;;;;;;;;;;7392038;19;20105;-71
2022/10/09 01:35:25;;;;;;;0.30;0.30;;;;;;;;;;7390449;19;20161;-72
2022/10/09 01:37:52;;;;;;;0.20;0.20;;;;;;;;;;7391741;19;20117;-71
2022/10/09 01:40:17;;;;;;;0.40;0.40;;;;;;;;;;7391009;19;20109;-71
2022/10/09 01:42:45;;;;;;;0.20;0.20;;;;;;;;;;7391048;19;20124;-72
2022/10/09 01:45:12;;;;;;;0.30;0.30;;;;;;;;;;7390368;19;20133;-71
2022/10/09 01:47:37;;;;;;;0.30;0.30;;;;;;;;;;7391016;19;20460;-72
2022/10/09 01:50:09;;;;;;;0.30;0.30;;;;;;;;;;7390317;19;20140;-72
2022/10/09 01:52:38;;;;;;;0.30;0.30;;;;;;;;;;7391366;19;20579;-72
2022/10/09 01:55:15;;;;;;;0.20;0.20;;;;;;;;;;7390568;19;20157;-71
2022/10/09 01:57:52;;;;;;;0.30;0.30;;;;;;;;;;7392891;19;20121;-71
2022/10/09 02:00:18;;;;;;;0.30;0.30;;;;;;;;;;7392716;19;20125;-72
2022/10/09 02:02:43;;;;;;;0.30;0.30;;;;;;;;;;7389054;19;20109;-71
2022/10/09 02:05:12;;;;;;;0.27;0.27;;;;;;;;;;7385444;19;20747;-70
2022/10/09 02:07:38;;;;;;;0.30;0.30;;;;;;;;;;7385563;19;20462;-72
2022/10/09 02:10:05;;;;;;;0.20;0.20;;;;;;;;;;7384921;19;20121;-72
2022/10/09 02:12:38;;;;;;;0.30;0.30;;;;;;;;;;7385431;19;20682;-72
2022/10/09 02:15:04;;;;;;;0.20;0.20;;;;;;;;;;7386272;19;20125;-71
2022/10/09 02:17:33;;;;;;;0.30;0.30;;;;;;;;;;7386754;19;20188;-71
2022/10/09 02:20:04;;;;;;;0.30;0.30;;;;;;;;;;7381833;19;20113;-72
2022/10/09 02:22:32;;;;;;;0.30;0.30;;;;;;;;;;7382763;19;20109;-72
2022/10/09 02:24:59;;;;;;;0.30;0.30;;;;;;;;;;7381463;19;20681;-72
2022/10/09 02:27:25;;;;;;;0.30;0.30;;;;;;;;;;7383300;19;20105;-71
2022/10/09 02:29:51;;;;;;;0.30;0.30;;;;;;;;;;7381210;19;20113;-72
2022/10/09 02:32:16;;;;;;;0.20;0.20;;;;;;;;;;7382743;19;20207;-72
2022/10/09 02:34:42;;;;;;;0.20;0.20;;;;;;;;;;7387430;19;20132;-71
2022/10/09 02:37:08;;;;;;;0.23;0.23;;;;;;;;;;7390497;19;20607;-72
2022/10/09 02:39:33;;;;;;;0.30;0.30;;;;;;;;;;7388866;19;20575;-72
2022/10/09 02:41:58;;;;;;;0.30;0.30;;;;;;;;;;7388374;19;20217;-72
2022/10/09 02:44:24;;;;;;;0.30;0.30;;;;;;;;;;7388793;19;20180;-72
2022/10/09 02:46:49;;;;;;;0.30;0.30;;;;;;;;;;7391873;19;20101;-72
2022/10/09 02:49:14;;;;;;;0.30;0.30;;;;;;;;;;7389136;19;20586;-71
2022/10/09 02:51:40;;;;;;;0.30;0.30;;;;;;;;;;7389009;19;20105;-72
2022/10/09 02:54:05;;;;;;;0.30;0.30;;;;;;;;;;7389400;19;20157;-71
2022/10/09 02:56:31;;;;;;;1.60;1.33;;;;;;;;;;7388961;19;20466;-72
2022/10/09 02:58:56;;;;;;;0.30;0.30;;;;;;;;;;7388878;19;20137;-72
2022/10/09 03:01:22;;;;;;;0.20;0.20;;;;;;;;;;7388552;19;20146;-72
2022/10/09 03:03:48;;;;;;;0.20;0.20;;;;;;;;;;7389245;19;20554;-72
2022/10/09 03:06:16;;;;;;;0.30;0.30;;;;;;;;;;7388676;19;20595;-71
2022/10/09 03:08:44;;;;;;;0.20;0.20;;;;;;;;;;7388988;19;20117;-72
2022/10/09 03:11:10;;;;;;;0.30;0.30;;;;;;;;;;7389599;19;20579;-72
2022/10/09 03:13:35;;;;;;;0.20;0.20;;;;;;;;;;7390939;19;20426;-70
2022/10/09 03:16:02;;;;;;;0.30;0.30;;;;;;;;;;7386215;19;20631;-72
2022/10/09 03:18:27;;;;;;;0.30;0.30;;;;;;;;;;7389253;19;20129;-72
2022/10/09 03:20:53;;;;;;;0.30;0.30;;;;;;;;;;7389066;19;20446;-72
2022/10/09 03:23:18;;;;;;;0.20;0.20;;;;;;;;;;7386316;19;20117;-72
2022/10/09 03:25:43;;;;;;;0.20;0.20;;;;;;;;;;7385070;19;20159;-72
2022/10/09 03:28:09;;;;;;;0.20;0.20;;;;;;;;;;7390273;19;20113;-72
2022/10/09 03:30:34;;;;;;;0.30;0.30;;;;;;;;;;7387510;19;20098;-72
2022/10/09 03:32:59;;;;;;;0.20;0.20;;;;;;;;;;7390174;19;20137;-72
2022/10/09 03:35:24;;;;;;;0.20;0.20;;;;;;;;;;7383507;19;20522;-72
2022/10/09 03:37:50;;;;;;;0.20;0.20;;;;;;;;;;7388029;19;20124;-71
2022/10/09 03:40:15;;;;;;;0.30;0.30;;;;;;;;;;7375831;19;20126;-72
2022/10/09 03:42:40;;;;;;;0.30;0.30;;;;;;;;;;7386267;19;20742;-71
2022/10/09 03:45:06;;;;;;;0.20;0.20;;;;;;;;;;7384341;19;20166;-72
2022/10/09 03:47:32;;;;;;;0.30;0.30;;;;;;;;;;7384608;19;20142;-72
2022/10/09 03:49:57;;;;;;;0.20;0.20;;;;;;;;;;7382194;19;20106;-72
2022/10/09 03:52:23;;;;;;;0.20;0.20;;;;;;;;;;7385687;19;20109;-71
2022/10/09 03:54:48;;;;;;;0.63;0.63;;;;;;;;;;7378434;19;20170;-71
2022/10/09 03:57:13;;;;;;;0.30;0.30;;;;;;;;;;7382523;19;20672;-71
2022/10/09 03:59:39;;;;;;;0.30;0.30;;;;;;;;;;7381599;19;20579;-70
2022/10/09 04:02:04;;;;;;;0.30;0.30;;;;;;;;;;7380422;19;20129;-71
2022/10/09 04:04:29;;;;;;;0.30;0.30;;;;;;;;;;7381791;19;20167;-71
2022/10/09 10:25:54;;;;;;;0.30;0.30;;;;;;;;;;7398321;19;20199;-90
2022/10/09 22:26:20;;;;;;;0.30;0.30;;;;;;;;;;7392851;19;20434;-70
2022/10/09 22:28:46;;;;;;;0.20;0.20;;;;;;;;;;7394310;19;20144;-70
2022/10/09 22:31:18;;;;;;;0.40;0.40;;;;;;;;;;7387992;19;20807;-70
2022/10/09 22:33:48;;;;;;;0.25;0.25;;;;;;;;;;7390561;19;20132;-70
2022/10/09 22:36:17;;;;;;;0.30;0.30;;;;;;;;;;7389873;19;20126;-70
2022/10/09 22:38:43;;;;;;;0.30;0.30;;;;;;;;;;7390015;19;20185;-69
2022/10/09 22:41:09;;;;;;;0.63;0.47;;;;;;;;;;7388534;19;20149;-69
2022/10/09 22:43:35;;;;;;;0.40;0.40;;;;;;;;;;7391285;19;20133;-69
2022/10/09 22:46:12;;;;;;;0.20;0.20;;;;;;;;;;7386710;19;20202;-69
2022/10/09 22:48:38;;;;;;;0.40;0.40;;;;;;;;;;7388628;19;20537;-70
2022/10/09 22:51:06;;;;;;;0.30;0.30;;;;;;;;;;7388336;19;20130;-70
2022/10/09 22:53:33;;;;;;;0.30;0.30;;;;;;;;;;7386494;19;20136;-69
2022/10/09 22:55:58;;;;;;;0.30;0.30;;;;;;;;;;7387017;19;20149;-70
2022/10/09 22:58:24;;;;;;;0.40;0.40;;;;;;;;;;7387632;19;20140;-69
2022/10/09 23:00:50;;;;;;;0.30;0.30;;;;;;;;;;7388323;19;20136;-69
2022/10/09 23:03:15;;;;;;;0.30;0.30;;;;;;;;;;7388530;19;20486;-70
2022/10/09 23:05:40;;;;;;;0.30;0.30;;;;;;;;;;7387165;19;20248;-70
2022/10/09 23:08:06;;;;;;;0.30;0.30;;;;;;;;;;7389363;19;20121;-70
2022/10/09 23:10:31;;;;;;;0.37;0.37;;;;;;;;;;7389765;19;20133;-69
2022/10/09 23:12:56;;;;;;;0.30;0.30;;;;;;;;;;7387009;19;20459;-70
2022/10/09 23:15:21;;;;;;;0.30;0.30;;;;;;;;;;7389037;19;20594;-71
2022/10/09 23:17:47;;;;;;;0.20;0.20;;;;;;;;;;7388775;19;20590;-69
2022/10/09 23:20:12;;;;;;;0.30;0.30;;;;;;;;;;7386854;19;20117;-70
2022/10/09 23:22:37;;;;;;;0.30;0.30;;;;;;;;;;7387416;19;20145;-71
2022/10/09 23:25:03;;;;;;;0.20;0.20;;;;;;;;;;7387250;19;20467;-69
2022/10/09 23:27:28;;;;;;;0.30;0.30;;;;;;;;;;7388541;19;20141;-69
2022/10/09 23:29:53;;;;;;;0.63;0.63;;;;;;;;;;7388696;19;20129;-69
2022/10/09 23:32:19;;;;;;;0.30;0.30;;;;;;;;;;7388695;19;20129;-69
2022/10/09 23:34:44;;;;;;;0.30;0.30;;;;;;;;;;7389364;19;20141;-69
2022/10/09 23:37:10;;;;;;;0.30;0.30;;;;;;;;;;7394848;19;20148;-69
2022/10/09 23:39:35;;;;;;;0.30;0.30;;;;;;;;;;7395143;19;20142;-70
2022/10/09 23:42:00;;;;;;;0.30;0.30;;;;;;;;;;7395879;19;20133;-70
2022/10/09 23:44:25;;;;;;;0.30;0.30;;;;;;;;;;7396785;19;20153;-70
2022/10/09 23:46:51;;;;;;;0.20;0.20;;;;;;;;;;7396344;19;20129;-70
2022/10/09 23:49:16;;;;;;;0.30;0.30;;;;;;;;;;7394467;19;20129;-70
2022/10/09 23:51:42;;;;;;;0.40;0.40;;;;;;;;;;7395517;19;20137;-70
2022/10/09 23:54:07;;;;;;;0.20;0.20;;;;;;;;;;7394163;19;20176;-71
2022/10/09 23:56:34;;;;;;;0.30;0.30;;;;;;;;;;7394294;19;20156;-70
2022/10/09 23:59:00;;;;;;;0.30;0.30;;;;;;;;;;7394647;19;20127;-70
